Time;durP1;ratioP1;P1;durP2;ratioP2;P2;SDS_P1;SDS_P2;PMS_P1;PMS_P2;Temp;Humidity;BMP_temperature;BMP_pressure;BME280_temperature;BME280_humidity;BME280_pressure;Samples;Min_cycle;Max_cycle;Signal;HPM_P1;HPM_P2
2021/12/29 00:01:52;;;;;;;268.00;57.42;;;5.70;99.90;;;;;;5067894;28;20055;-71
2021/12/29 00:04:18;;;;;;;171.30;48.58;;;5.70;99.90;;;;;;5063648;28;20183;-71
2021/12/29 00:06:44;;;;;;;183.20;48.20;;;5.80;99.90;;;;;;5084127;28;20040;-72
2021/12/29 00:09:10;;;;;;;148.65;45.70;;;5.80;99.90;;;;;;5078053;28;20040;-71
2021/12/29 00:11:39;;;;;;;121.95;41.33;;;5.80;99.90;;;;;;5061273;28;20072;-71
2021/12/29 00:14:05;;;;;;;144.13;43.08;;;5.90;99.90;;;;;;5055315;28;20040;-72
2021/12/29 00:16:34;;;;;;;206.40;50.25;;;5.90;99.90;;;;;;5066465;28;20048;-71
2021/12/29 00:19:02;;;;;;;122.50;38.22;;;5.90;99.90;;;;;;5066938;28;20498;-71
2021/12/29 00:21:29;;;;;;;165.90;43.97;;;5.90;99.90;;;;;;5059899;28;20409;-71
2021/12/29 00:23:58;;;;;;;100.15;34.28;;;6.00;99.90;;;;;;5057127;28;20036;-71
2021/12/29 00:26:28;;;;;;;107.40;35.67;;;6.00;99.90;;;;;;5066517;28;20054;-71
2021/12/29 00:28:58;;;;;;;100.40;36.83;;;6.00;99.90;;;;;;5069332;28;20044;-71
2021/12/29 00:31:28;;;;;;;112.13;35.30;;;6.10;99.90;;;;;;5068652;28;20075;-71
2021/12/29 00:33:53;;;;;;;157.93;43.30;;;6.10;99.90;;;;;;5069660;28;20481;-71
2021/12/29 00:36:19;;;;;;;108.13;35.30;;;6.10;99.90;;;;;;5070055;28;20044;-71
2021/12/29 00:38:45;;;;;;;198.52;45.83;;;6.10;99.90;;;;;;5068803;28;20052;-71
2021/12/29 00:41:11;;;;;;;130.13;37.15;;;6.10;99.90;;;;;;5067809;28;20044;-71
2021/12/29 00:43:38;;;;;;;108.43;35.83;;;6.10;99.90;;;;;;5053286;28;20142;-71
2021/12/29 00:46:04;;;;;;;108.63;32.67;;;6.20;99.90;;;;;;5067189;28;20051;-71
2021/12/29 00:48:36;;;;;;;100.95;33.40;;;6.20;99.90;;;;;;5067032;28;20044;-71
2021/12/29 00:51:03;;;;;;;113.25;33.88;;;6.10;99.90;;;;;;5068724;28;20053;-72
2021/12/29 00:53:29;;;;;;;111.18;36.25;;;6.10;99.90;;;;;;5068537;28;20504;-71
2021/12/29 00:55:54;;;;;;;119.85;35.40;;;6.20;99.90;;;;;;5070014;28;20087;-71
2021/12/29 00:58:20;;;;;;;90.57;30.80;;;6.20;99.90;;;;;;5066387;28;20044;-71
2021/12/29 01:00:46;;;;;;;97.03;32.65;;;6.10;99.90;;;;;;5068534;28;20399;-72
2021/12/29 01:03:11;;;;;;;86.68;27.15;;;6.10;99.90;;;;;;5053268;28;20382;-71
2021/12/29 01:05:38;;;;;;;87.40;31.17;;;6.10;99.90;;;;;;5070470;28;20075;-71
2021/12/29 01:08:04;;;;;;;111.72;31.88;;;6.10;99.90;;;;;;5065589;28;20064;-71
2021/12/29 01:10:30;;;;;;;85.45;28.80;;;6.10;99.90;;;;;;5069306;28;20116;-71
2021/12/29 01:13:01;;;;;;;96.78;31.38;;;6.10;99.90;;;;;;5067930;28;20124;-71
2021/12/29 01:15:33;;;;;;;91.18;29.25;;;6.10;99.90;;;;;;5061272;28;20085;-71
2021/12/29 01:18:02;;;;;;;83.97;28.23;;;6.10;99.90;;;;;;5063755;28;20127;-71
2021/12/29 01:20:29;;;;;;;71.03;24.77;;;6.10;99.90;;;;;;5069025;28;20097;-71
2021/12/29 01:22:57;;;;;;;84.07;27.15;;;6.10;99.90;;;;;;5067636;28;20040;-71
2021/12/29 01:25:22;;;;;;;75.28;24.95;;;6.10;99.90;;;;;;5069208;28;20127;-71
2021/12/29 01:27:49;;;;;;;62.95;21.45;;;6.10;99.90;;;;;;5065731;28;20123;-71
2021/12/29 01:30:15;;;;;;;77.95;24.17;;;6.10;99.90;;;;;;5060699;28;20555;-71
2021/12/29 01:32:42;;;;;;;67.10;23.38;;;6.10;99.90;;;;;;5057385;28;20114;-71
2021/12/29 01:35:09;;;;;;;62.83;21.77;;;6.10;99.90;;;;;;5066976;28;20052;-71
2021/12/29 01:37:35;;;;;;;62.53;22.27;;;6.10;99.90;;;;;;5083504;28;20056;-71
2021/12/29 01:40:05;;;;;;;73.95;23.38;;;6.10;99.90;;;;;;5066312;28;20110;-71
2021/12/29 01:42:30;;;;;;;92.03;23.17;;;6.10;99.90;;;;;;5069277;28;20405;-71
2021/12/29 01:44:56;;;;;;;69.85;22.85;;;6.10;99.90;;;;;;5067157;28;20041;-71
2021/12/29 01:47:27;;;;;;;145.32;30.67;;;6.10;99.90;;;;;;5062518;28;20083;-71
2021/12/29 01:49:54;;;;;;;84.00;25.13;;;6.10;99.90;;;;;;5059241;28;20036;-71
2021/12/29 01:52:25;;;;;;;134.65;28.95;;;6.10;99.90;;;;;;5083645;28;20144;-71
2021/12/29 01:54:51;;;;;;;159.30;33.08;;;6.10;99.90;;;;;;5054119;28;21000;-71
2021/12/29 01:57:18;;;;;;;154.48;34.03;;;6.10;99.90;;;;;;5067819;28;20110;-71
2021/12/29 01:59:44;;;;;;;126.90;31.63;;;6.10;99.90;;;;;;5067339;28;20047;-71
2021/12/29 02:02:14;;;;;;;118.93;30.75;;;6.10;99.90;;;;;;5068128;28;20060;-72
2021/12/29 02:04:41;;;;;;;118.70;30.42;;;6.10;99.90;;;;;;5063800;28;20049;-71
2021/12/29 02:07:07;;;;;;;127.28;32.70;;;6.20;99.90;;;;;;5068586;28;20060;-71
2021/12/29 02:09:33;;;;;;;119.25;33.45;;;6.20;99.90;;;;;;5067625;28;20136;-71
2021/12/29 02:11:59;;;;;;;157.77;35.42;;;6.20;99.90;;;;;;5084495;28;20298;-71
2021/12/29 02:14:24;;;;;;;169.73;36.85;;;6.20;99.90;;;;;;5066558;28;20429;-71
2021/12/29 02:16:51;;;;;;;175.32;38.17;;;6.20;99.90;;;;;;5068079;28;20044;-71
2021/12/29 02:19:17;;;;;;;194.32;40.60;;;6.30;99.90;;;;;;5065273;28;20410;-71
2021/12/29 02:21:50;;;;;;;267.00;46.95;;;6.30;99.90;;;;;;5063771;28;20041;-71
2021/12/29 02:24:20;;;;;;;325.98;51.85;;;6.30;99.90;;;;;;5069097;28;20056;-71
2021/12/29 02:26:47;;;;;;;181.93;38.80;;;6.30;99.90;;;;;;5066039;28;20098;-71
2021/12/29 02:29:16;;;;;;;219.85;42.85;;;6.30;99.90;;;;;;5076596;28;20423;-71
2021/12/29 02:31:42;;;;;;;187.07;39.33;;;6.30;99.90;;;;;;5065785;28;20040;-72
2021/12/29 02:34:10;;;;;;;217.05;39.33;;;6.30;99.90;;;;;;5063362;28;20048;-71
2021/12/29 02:36:43;;;;;;;;;;;6.40;99.90;;;;;;5062396;28;20059;-72
2021/12/29 02:39:10;;;;;;;190.68;40.63;;;6.30;99.90;;;;;;5061175;28;19920;-72
2021/12/29 02:41:37;;;;;;;172.05;37.83;;;6.30;99.90;;;;;;5068968;28;20501;-72
2021/12/29 02:44:04;;;;;;;194.57;37.38;;;6.30;99.90;;;;;;5064792;28;20488;-71
2021/12/29 02:46:32;;;;;;;157.13;33.47;;;6.40;99.90;;;;;;5066792;28;20075;-71
2021/12/29 02:48:59;;;;;;;157.45;34.05;;;6.40;99.90;;;;;;5067335;28;20417;-71
2021/12/29 02:51:34;;;;;;;136.77;32.03;;;6.40;99.90;;;;;;5063312;28;20057;-72
2021/12/29 02:54:00;;;;;;;186.65;35.53;;;6.50;99.90;;;;;;5068084;28;20121;-72
2021/12/29 02:56:28;;;;;;;145.57;30.13;;;6.50;99.90;;;;;;5064734;28;20174;-71
2021/12/29 02:58:57;;;;;;;116.85;26.23;;;6.50;99.90;;;;;;5057195;28;20123;-71
2021/12/29 03:01:24;;;;;;;81.78;22.38;;;6.50;99.90;;;;;;5068290;28;20086;-71
2021/12/29 03:03:50;;;;;;;110.80;23.70;;;6.50;99.90;;;;;;5068796;28;20497;-71
2021/12/29 03:06:15;;;;;;;83.32;21.98;;;6.50;99.90;;;;;;5066471;28;20051;-72
2021/12/29 03:08:42;;;;;;;94.68;23.23;;;6.50;99.90;;;;;;5065194;28;20053;-72
2021/12/29 03:11:08;;;;;;;83.90;22.83;;;6.50;99.90;;;;;;5066764;28;20123;-71
2021/12/29 03:13:36;;;;;;;91.57;21.48;;;6.60;99.90;;;;;;5062153;28;20160;-71
2021/12/29 03:16:03;;;;;;;95.68;21.98;;;6.60;99.90;;;;;;5067530;28;20076;-72
2021/12/29 03:18:29;;;;;;;149.82;28.20;;;6.50;99.90;;;;;;5066643;28;20098;-71
2021/12/29 03:20:57;;;;;;;93.15;23.70;;;6.50;99.90;;;;;;5066580;28;20409;-72
2021/12/29 03:23:23;;;;;;;88.82;23.17;;;6.60;99.90;;;;;;5066440;28;20044;-71
2021/12/29 03:25:49;;;;;;;71.38;21.70;;;6.60;99.90;;;;;;5066520;28;20098;-71
2021/12/29 03:28:20;;;;;;;91.47;21.92;;;6.60;99.90;;;;;;5065771;28;20053;-71
2021/12/29 03:30:50;;;;;;;74.85;23.60;;;6.60;99.90;;;;;;5065336;28;20051;-71
2021/12/29 03:33:16;;;;;;;96.70;26.15;;;6.60;99.90;;;;;;5059348;28;20127;-71
2021/12/29 03:35:54;;;;;;;99.18;26.63;;;6.60;99.90;;;;;;5066673;28;20467;-71
2021/12/29 03:38:22;;;;;;;;;;;6.70;99.90;;;;;;5068269;28;20052;-71
2021/12/29 03:40:48;;;;;;;110.18;29.38;;;6.70;99.90;;;;;;5061900;28;19925;-71
2021/12/29 03:43:14;;;;;;;114.78;29.42;;;6.70;99.90;;;;;;5058505;28;20700;-71
2021/12/29 03:45:44;;;;;;;88.18;29.88;;;6.70;99.90;;;;;;5056827;28;20158;-71
2021/12/29 03:48:11;;;;;;;108.55;28.92;;;6.80;99.90;;;;;;5065656;28;20041;-71
2021/12/29 03:50:37;;;;;;;118.85;32.80;;;6.80;99.90;;;;;;5054540;28;20052;-71
2021/12/29 03:53:05;;;;;;;112.40;31.73;;;6.80;99.90;;;;;;5066057;28;20041;-71
2021/12/29 03:55:30;;;;;;;111.88;30.63;;;6.80;99.90;;;;;;5068916;28;20048;-71
2021/12/29 03:57:56;;;;;;;105.05;31.85;;;6.80;99.90;;;;;;5067736;28;20036;-72
2021/12/29 04:00:23;;;;;;;126.00;35.95;;;6.80;99.90;;;;;;5066204;28;20098;-72
2021/12/29 04:02:49;;;;;;;105.15;34.38;;;6.80;99.90;;;;;;5062069;28;20049;-72
2021/12/29 04:05:17;;;;;;;115.80;35.65;;;6.90;99.90;;;;;;5063564;28;20068;-72
2021/12/29 04:07:43;;;;;;;118.90;34.47;;;6.90;99.90;;;;;;5066489;28;20097;-71
2021/12/29 04:10:10;;;;;;;109.45;34.97;;;6.90;99.90;;;;;;5067158;28;20049;-72
2021/12/29 04:12:41;;;;;;;146.38;42.20;;;6.90;99.90;;;;;;5066673;28;20166;-71
2021/12/29 04:15:12;;;;;;;159.75;45.45;;;6.90;99.90;;;;;;5063956;28;20109;-72
2021/12/29 04:17:39;;;;;;;134.18;42.72;;;6.90;99.90;;;;;;5063767;28;20650;-71
2021/12/29 04:22:57;;;;;;;130.38;39.33;;;7.00;99.90;;;;;;5067604;28;20064;-72
2021/12/29 04:25:24;;;;;;;137.98;44.55;;;7.00;99.90;;;;;;5062795;28;20055;-71
2021/12/29 04:27:51;;;;;;;143.10;43.13;;;7.00;99.90;;;;;;5067652;28;20052;-71
2021/12/29 04:30:17;;;;;;;135.05;41.25;;;7.00;99.90;;;;;;5069273;28;20063;-72
2021/12/29 04:32:43;;;;;;;142.25;44.78;;;7.00;99.90;;;;;;5070416;28;20467;-71
2021/12/29 04:35:09;;;;;;;158.77;46.03;;;7.00;99.90;;;;;;5067360;28;20143;-72
2021/12/29 04:37:34;;;;;;;165.50;45.83;;;7.00;99.90;;;;;;5069390;28;20179;-72
2021/12/29 04:40:00;;;;;;;128.65;44.88;;;7.00;99.90;;;;;;5066368;28;20051;-71
2021/12/29 04:42:25;;;;;;;174.13;51.00;;;7.00;99.90;;;;;;5056051;28;20060;-72
2021/12/29 04:44:51;;;;;;;172.32;49.38;;;7.00;99.90;;;;;;5068388;28;20044;-71
2021/12/29 04:47:18;;;;;;;140.38;45.97;;;7.10;99.90;;;;;;5066326;28;20055;-71
2021/12/29 04:49:45;;;;;;;185.27;51.65;;;7.00;99.90;;;;;;5062403;28;20128;-71
2021/12/29 04:52:13;;;;;;;130.40;45.50;;;7.10;99.90;;;;;;5060444;28;20052;-71
2021/12/29 04:54:39;;;;;;;147.38;46.92;;;7.10;99.90;;;;;;5069359;28;20040;-71
2021/12/29 04:57:06;;;;;;;134.40;44.88;;;7.00;99.90;;;;;;5063584;28;20045;-71
2021/12/29 04:59:32;;;;;;;143.00;44.42;;;7.10;99.90;;;;;;5052064;28;20116;-71
2021/12/29 05:01:58;;;;;;;155.68;43.35;;;7.10;99.90;;;;;;5066106;28;20040;-71
2021/12/29 05:04:31;;;;;;;151.25;47.30;;;7.10;99.90;;;;;;5053087;28;20113;-71
2021/12/29 05:09:42;;;;;;;152.50;46.95;;;7.10;99.90;;;;;;5067838;28;20127;-71
2021/12/29 05:12:08;;;;;;;153.50;47.28;;;7.00;99.90;;;;;;5069553;28;20182;-71
2021/12/29 05:14:34;;;;;;;130.75;42.92;;;7.10;99.90;;;;;;5068002;28;20493;-71
2021/12/29 05:17:00;;;;;;;104.13;39.47;;;7.10;99.90;;;;;;5068134;28;20076;-71
2021/12/29 05:19:25;;;;;;;95.55;37.47;;;7.10;99.90;;;;;;5065130;28;20118;-71
2021/12/29 05:21:51;;;;;;;102.78;38.75;;;7.10;99.90;;;;;;5082881;28;20057;-71
2021/12/29 05:24:17;;;;;;;109.38;37.70;;;7.10;99.90;;;;;;5072109;28;20401;-71
2021/12/29 05:26:43;;;;;;;109.22;37.70;;;7.10;99.90;;;;;;5068401;28;20040;-72
2021/12/29 05:29:09;;;;;;;128.60;38.25;;;7.20;99.90;;;;;;5069058;28;20048;-71
2021/12/29 05:31:34;;;;;;;128.63;38.80;;;7.10;99.90;;;;;;5061139;28;20048;-71
2021/12/29 05:34:00;;;;;;;127.70;43.13;;;7.10;99.90;;;;;;5070591;28;20052;-71
2021/12/29 05:36:26;;;;;;;93.78;35.90;;;7.10;99.90;;;;;;5067158;28;20056;-72
2021/12/29 05:38:56;;;;;;;116.72;38.30;;;7.10;99.90;;;;;;5069226;28;20131;-71
2021/12/29 05:41:23;;;;;;;127.68;40.63;;;7.10;99.90;;;;;;5066407;28;20084;-72
2021/12/29 05:43:49;;;;;;;96.57;37.60;;;7.10;99.90;;;;;;5069721;28;20440;-71
2021/12/29 05:46:14;;;;;;;89.45;35.72;;;7.10;99.90;;;;;;5066990;28;20063;-71
2021/12/29 05:48:40;;;;;;;97.60;36.63;;;7.10;99.90;;;;;;5065708;28;20040;-71
2021/12/29 05:51:06;;;;;;;127.70;40.10;;;7.20;99.90;;;;;;5067759;28;20167;-71
2021/12/29 05:53:32;;;;;;;116.38;38.72;;;7.20;99.90;;;;;;5056505;28;20520;-72
2021/12/29 05:55:57;;;;;;;121.82;39.13;;;7.20;99.90;;;;;;5070391;28;20048;-71
2021/12/29 05:58:23;;;;;;;118.40;38.90;;;7.20;99.90;;;;;;5067337;28;20048;-71
2021/12/29 06:00:49;;;;;;;134.27;41.17;;;7.20;99.90;;;;;;5071071;28;20073;-71
2021/12/29 06:03:15;;;;;;;127.82;41.30;;;7.20;99.90;;;;;;5081491;28;20555;-71
2021/12/29 06:05:41;;;;;;;105.70;37.33;;;7.20;99.90;;;;;;5063966;28;20083;-71
2021/12/29 06:08:09;;;;;;;133.52;42.88;;;7.20;99.90;;;;;;5079164;28;20504;-71
2021/12/29 06:10:34;;;;;;;99.20;36.38;;;7.20;99.90;;;;;;5070356;28;20044;-71
2021/12/29 06:13:00;;;;;;;104.40;39.22;;;7.20;99.90;;;;;;5053995;28;20036;-72
2021/12/29 06:15:26;;;;;;;95.85;38.17;;;7.20;99.90;;;;;;5063315;28;20044;-71
2021/12/29 06:17:51;;;;;;;113.03;38.17;;;7.20;99.90;;;;;;5068396;28;20136;-71
2021/12/29 06:20:17;;;;;;;122.75;39.80;;;7.20;99.90;;;;;;5065843;28;20163;-71
2021/12/29 06:22:43;;;;;;;97.30;36.15;;;7.20;99.90;;;;;;5056981;28;20404;-71
2021/12/29 06:25:12;;;;;;;104.88;40.53;;;7.20;99.90;;;;;;5065452;28;20047;-71
2021/12/29 06:27:38;;;;;;;114.97;38.50;;;7.20;99.90;;;;;;5069057;28;20045;-71
2021/12/29 06:30:06;;;;;;;106.82;41.15;;;7.20;99.90;;;;;;5062600;28;20045;-71
2021/12/29 06:32:33;;;;;;;89.25;35.22;;;7.20;99.90;;;;;;5066808;28;20163;-71
2021/12/29 06:34:58;;;;;;;104.35;37.38;;;7.20;99.90;;;;;;5067024;28;20452;-71
2021/12/29 06:37:24;;;;;;;104.40;39.05;;;7.30;99.90;;;;;;5068888;28;20079;-71
2021/12/29 06:39:50;;;;;;;114.97;38.72;;;7.30;99.90;;;;;;5066976;28;20060;-71
2021/12/29 06:42:15;;;;;;;112.65;39.42;;;7.20;99.90;;;;;;5067799;28;20045;-71
2021/12/29 06:44:42;;;;;;;91.88;36.75;;;7.20;99.90;;;;;;5067855;28;20075;-71
2021/12/29 06:47:08;;;;;;;101.90;37.60;;;7.20;99.90;;;;;;5051139;28;20037;-71
2021/12/29 06:49:35;;;;;;;116.10;40.97;;;7.20;99.90;;;;;;5061748;28;20091;-71
2021/12/29 06:52:02;;;;;;;97.82;35.78;;;7.20;99.90;;;;;;5062402;28;20033;-71
2021/12/29 06:54:29;;;;;;;99.97;36.72;;;7.20;99.90;;;;;;5068721;28;20097;-71
2021/12/29 06:56:55;;;;;;;93.35;37.22;;;7.20;99.90;;;;;;5066172;28;20054;-71
2021/12/29 06:59:21;;;;;;;113.07;38.33;;;7.20;99.90;;;;;;5067484;28;20041;-71
2021/12/29 07:01:47;;;;;;;106.93;37.65;;;7.20;99.90;;;;;;5067913;28;20040;-71
2021/12/29 07:04:13;;;;;;;99.32;35.88;;;7.20;99.90;;;;;;5061763;28;20059;-71
2021/12/29 07:06:38;;;;;;;96.82;35.65;;;7.20;99.90;;;;;;5055587;28;20071;-71
2021/12/29 07:09:05;;;;;;;123.30;40.33;;;7.20;99.90;;;;;;5067736;28;20048;-71
2021/12/29 07:11:31;;;;;;;122.38;40.20;;;7.20;99.90;;;;;;5068292;28;20049;-71
2021/12/29 07:14:00;;;;;;;121.53;37.78;;;7.20;99.90;;;;;;5067221;28;20044;-71
2021/12/29 07:16:25;;;;;;;139.55;40.22;;;7.20;99.90;;;;;;5066321;28;20049;-71
2021/12/29 07:18:51;;;;;;;94.55;34.80;;;7.20;99.90;;;;;;5068184;28;20409;-71
2021/12/29 07:21:17;;;;;;;117.18;38.17;;;7.20;99.90;;;;;;5063771;28;20805;-71
2021/12/29 07:23:43;;;;;;;96.80;37.45;;;7.20;99.90;;;;;;5064508;28;20045;-71
2021/12/29 07:26:08;;;;;;;164.82;44.50;;;7.20;99.90;;;;;;5064240;28;20072;-71
2021/12/29 07:28:34;;;;;;;101.40;36.20;;;7.20;99.90;;;;;;5081189;28;20083;-71
2021/12/29 07:31:00;;;;;;;106.55;36.45;;;7.20;99.90;;;;;;5068509;28;20052;-71
2021/12/29 07:33:25;;;;;;;107.45;35.08;;;7.20;99.90;;;;;;5065328;28;20102;-71
2021/12/29 07:35:51;;;;;;;129.85;37.47;;;7.20;99.90;;;;;;5066233;28;20408;-71
2021/12/29 07:38:17;;;;;;;116.18;36.38;;;7.20;99.90;;;;;;5069406;28;20037;-71
2021/12/29 07:40:42;;;;;;;104.55;34.83;;;7.20;99.90;;;;;;5063308;28;20127;-71
2021/12/29 07:43:09;;;;;;;100.28;33.85;;;7.20;99.90;;;;;;5070623;28;20048;-71
2021/12/29 07:45:34;;;;;;;180.50;45.05;;;7.20;99.90;;;;;;5071478;28;20101;-71
2021/12/29 07:48:02;;;;;;;83.80;30.40;;;7.20;99.90;;;;;;5069122;28;20048;-72
2021/12/29 07:50:28;;;;;;;135.20;38.23;;;7.20;99.90;;;;;;5070092;28;20154;-71
2021/12/29 07:52:53;;;;;;;93.40;31.20;;;7.20;99.90;;;;;;5070203;28;20826;-72
2021/12/29 07:55:19;;;;;;;89.03;30.58;;;7.20;99.90;;;;;;5056115;28;20164;-71
2021/12/29 07:57:46;;;;;;;89.45;31.83;;;7.20;99.90;;;;;;5064272;28;20044;-71
2021/12/29 08:00:13;;;;;;;92.72;31.00;;;7.20;99.90;;;;;;5066369;28;20152;-71
2021/12/29 08:02:39;;;;;;;100.38;31.52;;;7.20;99.90;;;;;;5067856;28;20093;-71
2021/12/29 08:05:08;;;;;;;82.28;29.98;;;7.20;99.90;;;;;;5079567;28;20056;-71
2021/12/29 08:07:34;;;;;;;97.13;33.40;;;7.20;99.90;;;;;;5072027;28;20053;-71
2021/12/29 08:10:00;;;;;;;139.52;34.67;;;7.20;99.90;;;;;;5068667;28;20071;-71
2021/12/29 08:12:27;;;;;;;110.32;33.35;;;7.20;99.90;;;;;;5069293;28;20067;-71
2021/12/29 08:14:53;;;;;;;105.10;34.20;;;7.20;99.90;;;;;;5065653;28;20052;-71
2021/12/29 08:17:18;;;;;;;106.38;34.17;;;7.30;99.90;;;;;;5065415;28;20132;-71
2021/12/29 08:19:44;;;;;;;91.97;30.27;;;7.30;99.90;;;;;;5069981;28;20123;-72
2021/12/29 08:22:11;;;;;;;91.70;29.48;;;7.30;99.90;;;;;;5051341;28;20566;-71
2021/12/29 08:24:37;;;;;;;123.15;35.17;;;7.30;99.90;;;;;;5066253;28;20159;-71
2021/12/29 08:27:03;;;;;;;111.90;32.95;;;7.30;99.90;;;;;;5065000;28;20528;-71
2021/12/29 08:29:29;;;;;;;99.70;31.60;;;7.30;99.90;;;;;;5066625;28;20036;-71
2021/12/29 08:31:56;;;;;;;129.80;34.67;;;7.30;99.90;;;;;;5067790;28;20067;-71
2021/12/29 08:34:26;;;;;;;150.52;37.45;;;7.30;99.90;;;;;;5062078;28;20554;-72
2021/12/29 08:36:52;;;;;;;95.00;30.05;;;7.30;99.90;;;;;;5068722;28;20045;-71
2021/12/29 08:39:23;;;;;;;171.48;39.42;;;7.30;99.90;;;;;;5069691;28;20460;-71
2021/12/29 08:41:49;;;;;;;180.35;38.47;;;7.40;99.90;;;;;;5070123;28;20057;-72
2021/12/29 08:44:16;;;;;;;168.20;38.10;;;7.40;99.90;;;;;;5067779;28;20489;-71
2021/12/29 08:46:43;;;;;;;167.30;38.10;;;7.40;99.90;;;;;;5068550;28;20119;-71
2021/12/29 08:49:09;;;;;;;127.90;33.95;;;7.40;99.90;;;;;;5066078;28;20052;-71
2021/12/29 08:51:35;;;;;;;145.77;37.92;;;7.40;99.90;;;;;;5067611;28;20040;-71
2021/12/29 08:54:00;;;;;;;173.95;40.17;;;7.40;99.90;;;;;;5068493;28;20048;-71
2021/12/29 08:56:26;;;;;;;184.13;42.60;;;7.40;99.90;;;;;;5069735;28;20048;-71
2021/12/29 08:58:53;;;;;;;111.88;35.17;;;7.40;99.90;;;;;;5067009;28;20484;-71
2021/12/29 09:01:21;;;;;;;146.50;38.90;;;7.40;99.90;;;;;;5047382;28;20036;-71
2021/12/29 09:03:48;;;;;;;139.77;37.55;;;7.40;99.90;;;;;;5069182;28;20044;-71
2021/12/29 09:06:15;;;;;;;133.20;37.03;;;7.40;99.90;;;;;;5065387;28;20152;-71
2021/12/29 09:08:41;;;;;;;106.20;35.38;;;7.50;99.90;;;;;;5068428;28;20044;-71
2021/12/29 09:11:07;;;;;;;297.90;55.80;;;7.50;99.90;;;;;;5068602;28;20052;-71
2021/12/29 09:13:33;;;;;;;200.35;44.25;;;7.50;99.90;;;;;;5069360;28;20087;-71
2021/12/29 09:16:00;;;;;;;159.82;42.95;;;7.50;99.90;;;;;;5069784;28;20454;-71
2021/12/29 09:18:28;;;;;;;152.90;42.83;;;7.50;99.90;;;;;;5068065;28;20560;-71
2021/12/29 09:20:56;;;;;;;201.68;46.38;;;7.50;99.90;;;;;;5065079;28;20051;-71
2021/12/29 09:23:21;;;;;;;;;;;7.50;99.90;;;;;;5068153;28;20058;-71
2021/12/29 09:25:48;;;;;;;110.20;36.17;;;7.60;99.90;;;;;;5081488;28;19920;-71
2021/12/29 09:28:17;;;;;;;122.57;37.38;;;7.60;99.90;;;;;;5069467;28;20040;-71
2021/12/29 09:30:46;;;;;;;99.68;32.97;;;7.60;99.90;;;;;;5068349;28;20049;-71
2021/12/29 09:33:12;;;;;;;123.47;34.97;;;7.60;99.90;;;;;;5067046;28;20113;-71
2021/12/29 09:35:38;;;;;;;140.88;37.17;;;7.60;99.90;;;;;;5052349;28;20047;-71
2021/12/29 09:38:07;;;;;;;136.20;35.42;;;7.70;99.90;;;;;;5068778;28;20044;-71
2021/12/29 09:40:34;;;;;;;119.97;34.78;;;7.70;99.90;;;;;;5052991;28;20067;-71
2021/12/29 09:43:00;;;;;;;100.10;33.17;;;7.70;99.90;;;;;;5068130;28;20403;-71
2021/12/29 09:45:26;;;;;;;115.20;35.25;;;7.70;99.90;;;;;;5066872;28;20163;-70
2021/12/29 09:47:55;;;;;;;139.18;36.17;;;7.70;99.90;;;;;;5069920;28;20145;-71
2021/12/29 09:50:21;;;;;;;;;;;7.80;99.90;;;;;;5061808;28;20054;-71
2021/12/29 09:52:47;;;;;;;130.65;38.67;;;7.70;99.90;;;;;;5066409;28;19920;-71
2021/12/29 09:55:18;;;;;;;107.18;34.35;;;7.80;99.90;;;;;;5069618;28;20040;-71
2021/12/29 09:57:47;;;;;;;127.68;35.53;;;7.80;99.90;;;;;;5066813;28;20094;-71
2021/12/29 10:00:22;;;;;;;131.00;34.03;;;7.80;99.90;;;;;;5068295;28;20055;-71
2021/12/29 10:02:48;;;;;;;135.43;32.20;;;7.90;99.90;;;;;;5067115;28;20054;-71
2021/12/29 10:05:14;;;;;;;102.40;31.25;;;7.90;99.90;;;;;;5068353;28;20547;-71
2021/12/29 10:07:40;;;;;;;81.15;27.35;;;7.90;99.90;;;;;;5061891;28;20497;-71
2021/12/29 10:10:20;;;;;;;94.65;27.70;;;7.90;99.90;;;;;;5064514;28;20041;-71
2021/12/29 10:12:49;;;;;;;85.40;28.52;;;7.90;99.90;;;;;;5047216;28;20124;-71
2021/12/29 10:15:15;;;;;;;117.78;31.85;;;8.00;99.90;;;;;;5060864;28;20052;-71
2021/12/29 10:17:41;;;;;;;71.57;22.38;;;8.00;99.90;;;;;;5065256;28;20048;-71
2021/12/29 10:20:17;;;;;;;76.15;23.88;;;8.00;99.90;;;;;;5067422;28;20047;-70
2021/12/29 10:22:56;;;;;;;66.82;23.65;;;8.10;99.90;;;;;;5059164;28;20079;-71
2021/12/29 10:25:24;;;;;;;72.20;23.65;;;8.10;99.90;;;;;;5064113;28;20055;-70
2021/12/29 10:27:52;;;;;;;59.40;21.85;;;8.10;99.90;;;;;;5069204;28;20044;-71
2021/12/29 10:30:20;;;;;;;73.88;22.95;;;8.10;99.90;;;;;;5067755;28;20443;-71
2021/12/29 10:32:46;;;;;;;54.42;20.63;;;8.10;99.90;;;;;;5076516;28;20051;-71
2021/12/29 10:35:24;;;;;;;63.53;21.65;;;8.20;99.90;;;;;;5072354;28;20867;-71
2021/12/29 10:37:52;;;;;;;66.28;23.85;;;8.20;99.90;;;;;;5058460;28;20107;-71
2021/12/29 10:40:29;;;;;;;62.67;22.48;;;8.20;99.90;;;;;;5062412;28;20045;-71
2021/12/29 10:42:58;;;;;;;55.75;20.42;;;8.20;99.90;;;;;;5068099;28;20101;-71
2021/12/29 10:45:27;;;;;;;;;;;8.20;99.90;;;;;;5066222;28;20052;-71
2021/12/29 10:47:53;;;;;;;51.97;18.85;;;8.20;99.90;;;;;;5066300;28;19925;-71
2021/12/29 10:50:19;;;;;;;54.80;18.75;;;8.20;99.90;;;;;;5066153;28;20048;-71
2021/12/29 10:52:50;;;;;;;46.92;18.15;;;8.20;99.90;;;;;;5068251;28;20501;-71
2021/12/29 10:55:18;;;;;;;40.72;17.35;;;8.30;99.90;;;;;;5067705;28;20040;-71
2021/12/29 10:57:44;;;;;;;40.00;17.52;;;8.20;99.90;;;;;;5065681;28;20036;-71
2021/12/29 11:00:18;;;;;;;36.80;18.00;;;8.30;99.90;;;;;;5067791;28;20044;-71
2021/12/29 11:02:45;;;;;;;41.97;16.15;;;8.30;99.90;;;;;;5050382;28;20048;-71
2021/12/29 11:05:12;;;;;;;29.45;16.10;;;8.30;99.90;;;;;;5066972;28;20540;-71
2021/12/29 11:07:40;;;;;;;36.85;16.45;;;8.30;99.90;;;;;;5065870;28;20051;-71
2021/12/29 11:10:10;;;;;;;32.65;15.30;;;8.30;99.90;;;;;;5067820;28;20052;-71
2021/12/29 11:12:47;;;;;;;35.55;16.17;;;8.20;99.90;;;;;;5066289;28;20119;-71
2021/12/29 11:15:24;;;;;;;48.90;17.45;;;8.20;99.90;;;;;;5064841;28;20390;-71
2021/12/29 11:17:51;;;;;;;43.38;17.58;;;8.20;99.90;;;;;;5056105;28;20049;-71
2021/12/29 11:20:20;;;;;;;42.80;16.77;;;8.20;99.90;;;;;;5056888;28;20048;-70
2021/12/29 11:22:45;;;;;;;42.60;19.08;;;8.20;99.90;;;;;;5056620;28;20123;-71
2021/12/29 11:25:11;;;;;;;47.17;19.63;;;8.20;99.90;;;;;;5053090;28;20143;-71
2021/12/29 11:27:38;;;;;;;42.88;18.98;;;8.20;99.90;;;;;;5051783;28;20115;-71
2021/12/29 11:30:12;;;;;;;37.45;17.90;;;8.20;99.90;;;;;;5068483;28;20056;-71
2021/12/29 11:32:41;;;;;;;46.35;20.63;;;8.20;99.90;;;;;;5057876;28;20048;-71
2021/12/29 11:35:12;;;;;;;45.60;19.65;;;8.20;99.90;;;;;;5064056;28;20389;-71
2021/12/29 11:37:45;;;;;;;48.63;21.13;;;8.20;99.90;;;;;;5062778;28;20052;-71
2021/12/29 11:40:15;;;;;;;49.22;19.92;;;8.30;99.90;;;;;;5085011;28;20083;-71
2021/12/29 11:42:41;;;;;;;54.10;21.08;;;8.30;99.90;;;;;;5065727;28;20049;-70
2021/12/29 11:45:09;;;;;;;48.38;20.85;;;8.30;99.90;;;;;;5065234;28;20051;-71
2021/12/29 11:47:35;;;;;;;36.80;18.00;;;8.30;99.90;;;;;;5064493;28;20053;-70
2021/12/29 11:50:03;;;;;;;51.88;20.38;;;8.30;99.90;;;;;;5065686;28;20119;-70
2021/12/29 11:52:54;;;;;;;44.58;21.42;;;8.30;99.90;;;;;;5067741;28;20044;-70
2021/12/29 11:55:26;;;;;;;43.83;19.65;;;8.40;99.90;;;;;;5074539;28;20055;-70
2021/12/29 11:57:52;;;;;;;60.88;20.67;;;8.40;99.90;;;;;;5068253;28;20635;-70
2021/12/29 12:00:21;;;;;;;49.22;21.27;;;8.40;99.90;;;;;;5065183;28;20041;-70
2021/12/29 12:02:49;;;;;;;50.08;22.10;;;8.50;99.90;;;;;;5054334;28;20056;-70
2021/12/29 12:05:22;;;;;;;46.80;21.45;;;8.50;99.90;;;;;;5073120;28;20421;-70
2021/12/29 12:07:47;;;;;;;53.10;21.38;;;8.50;99.90;;;;;;5064411;28;20055;-70
2021/12/29 12:10:28;;;;;;;53.08;19.77;;;8.50;99.90;;;;;;5067056;28;20052;-70
2021/12/29 12:12:54;;;;;;;45.92;20.77;;;8.50;99.90;;;;;;5067277;28;20048;-70
2021/12/29 12:15:38;;;;;;;63.25;22.90;;;8.50;99.90;;;;;;5057674;28;20048;-70
2021/12/29 12:18:07;;;;;;;56.30;23.73;;;8.50;99.90;;;;;;5058846;28;20047;-70
2021/12/29 12:20:49;;;;;;;60.58;24.95;;;8.50;99.90;;;;;;5067177;28;20133;-70
2021/12/29 12:23:27;;;;;;;52.75;24.08;;;8.50;99.90;;;;;;5064580;28;20048;-70
2021/12/29 12:26:06;;;;;;;52.57;23.53;;;8.50;99.90;;;;;;5066905;28;20058;-70
2021/12/29 12:28:44;;;;;;;60.03;24.05;;;8.50;99.90;;;;;;5068129;28;20048;-70
2021/12/29 12:31:28;;;;;;;67.10;25.80;;;8.50;99.90;;;;;;5067602;28;20059;-70
2021/12/29 12:34:10;;;;;;;60.58;24.77;;;8.50;99.90;;;;;;5062883;28;20041;-70
2021/12/29 12:36:36;;;;;;;52.38;24.20;;;8.50;99.90;;;;;;5068894;28;20071;-70
2021/12/29 12:39:12;;;;;;;60.95;22.77;;;8.50;99.90;;;;;;5069456;28;20876;-70
2021/12/29 12:41:44;;;;;;;48.40;20.73;;;8.50;99.90;;;;;;5063766;28;20090;-70